Flight Track Log - Related Links

Times and Time Zones

All times are in EDT time to prevent confusion due to time zone crossing. See the GJS6242 flight status page for this flight to view local times or setup timezone preferences in your user account.

Time Position Orientation Groundspeed Altitude Reporting Facility
EDT Latitude Longitude Course Direction KTS MPH feet Rate Location/Type
Wed 08:11:08 AM 35.9008 -78.7794 26° Northeast 169 194 1,400  Level Washington Center
Wed 08:12:24 AM 35.9644 -78.7408 26° Northeast 229 264 3,800 2,321 Climbing Washington Center
Wed 08:13:25 AM 36.0222 -78.6867 37° Northeast 246 283 6,700 2,800 Climbing Washington Center
Wed 08:15:24 AM 36.1400 -78.5653 40° Northeast 287 330 12,200 2,733 Climbing Washington Center
Wed 08:16:25 AM 36.2169 -78.4883 39° Northeast 303 349 14,900 2,459 Climbing Washington Center
Wed 08:17:26 AM 36.2833 -78.4211 39° Northeast 327 376 17,200 2,390 Climbing Washington Center
Wed 08:18:23 AM 36.3686 -78.3442 36° Northeast 332 382 19,600 2,237 Climbing Washington Center
Wed 08:19:24 AM 36.4456 -78.2644 40° Northeast 339 390 21,600 1,918 Climbing Washington Center
Wed 08:20:25 AM 36.5267 -78.1844 38° Northeast 358 412 23,500 1,672 Climbing Washington Center
Wed 08:21:26 AM 36.6011 -78.1094 39° Northeast 370 426 25,000 1,488 Climbing Washington Center
Wed 08:22:26 AM 36.6883 -78.0267 37° Northeast 380 437 26,500 1,462 Climbing Washington Center
Wed 08:23:25 AM 36.7883 -77.9339 37° Northeast 398 458 27,900 1,050 Climbing Washington Center
Wed 08:24:26 AM 36.8756 -77.8431 40° Northeast 398 458 28,600 555 Climbing Washington Center
Wed 08:25:24 AM 36.9669 -77.7522 38° Northeast 403 464 29,000 203 Climbing Washington Center
Wed 08:26:24 AM 37.0561 -77.6636 38° Northeast 403 464 29,000  Level Washington Center
Wed 08:27:25 AM 37.1517 -77.5669 39° Northeast 408 470 29,000  Level Washington Center
Wed 08:28:23 AM 37.2533 -77.4653 39° Northeast 436 502 29,000  Level Washington Center
Wed 08:29:24 AM 37.3508 -77.3658 39° Northeast 454 522 29,000  Level Washington Center
Wed 08:30:24 AM 37.4525 -77.2661 38° Northeast 454 522 29,000  Level Washington Center
Wed 08:31:26 AM 37.5392 -77.1764 39° Northeast 454 522 29,000  Level Washington Center
Wed 08:32:23 AM 37.6364 -77.0786 39° Northeast 454 522 29,000  Level Washington Center
Wed 08:33:25 AM 37.7314 -76.9756 41° Northeast 454 522 29,000  Level Washington Center
Wed 08:34:25 AM 37.8328 -76.8750 38° Northeast 454 522 29,000  Level Washington Center
Wed 08:35:26 AM 37.9297 -76.7739 39° Northeast 454 522 29,000  Level Washington Center
Wed 08:36:24 AM 38.0267 -76.6725 39° Northeast 454 522 29,000  Level Washington Center
Wed 08:37:24 AM 38.1275 -76.5658 40° Northeast 454 522 29,000  Level Washington Center
Wed 08:38:25 AM 38.2283 -76.4614 39° Northeast 454 522 29,000  Level Washington Center
Wed 08:39:24 AM 38.3375 -76.3567 37° Northeast 449 517 29,000 -555 Level Washington Center
Wed 08:40:24 AM 38.4444 -76.2544 37° Northeast 454 522 27,900 -992 Descending Washington Center
Wed 08:41:25 AM 38.5556 -76.1492 37° Northeast 472 543 27,000 -454 Descending Washington Center
Wed 08:42:23 AM 38.6664 -76.0489 35° Northeast 488 562 27,000  Level Washington Center
Wed 08:43:24 AM 38.7772 -75.9511 35° Northeast 488 562 27,000  Level Washington Center
Wed 08:44:25 AM 38.8858 -75.8478 37° Northeast 488 562 27,000  Level Washington Center
Wed 08:45:26 AM 38.9986 -75.7439 36° Northeast 488 562 27,000  Level Washington Center
Wed 08:46:24 AM 39.1050 -75.6369 38° Northeast 488 562 27,000 -202 Level Washington Center
Wed 08:47:25 AM 39.2175 -75.5328 36° Northeast 488 562 26,600 -1,240 Descending Washington Center
Wed 08:48:25 AM 39.3300 -75.4333 34° Northeast 488 562 24,500 -2,773 Descending Washington Center
Wed 08:49:24 AM 39.4319 -75.3389 36° Northeast 473 544 21,100 -2,874 Descending Washington Center
Wed 08:50:24 AM 39.5297 -75.2553 33° Northeast 440 506 18,800 -1,800 Descending Washington Center
Wed 08:51:24 AM 39.6211 -75.1658 37° Northeast 415 478 17,500 -1,377 Descending Washington Center
Wed 08:52:26 AM 39.7167 -75.0789 35° Northeast 415 478 16,000 -1,462 Descending Washington Center
Wed 08:53:23 AM 39.8039 -75.0081 32° Northeast 415 478 14,600 -1,678 Descending Washington Center
Wed 08:54:24 AM 39.9053 -74.9181 34° Northeast 410 472 12,700 -1,770 Descending Washington Center
Wed 08:55:25 AM 39.9736 -74.8253 46° Northeast 402 463 11,000 -836 Descending Washington Center
Wed 08:56:26 AM 40.0422 -74.8083 11° North 316 364 11,000  Level Washington Center
Wed 08:57:24 AM 40.0344 -74.8869 263° West 139 160 11,000  Level Washington Center
Wed 08:58:25 AM 39.9806 -74.9525 223° Southwest 155 178 11,000  Level Washington Center
Wed 08:59:26 AM 39.9119 -74.9719 192° South 209 241 11,000  Level Washington Center
Wed 09:00:26 AM 39.9136 -74.8936 88° East 158 182 11,000  Level Washington Center
Wed 09:01:24 AM 39.9714 -74.8253 42° Northeast 161 185 11,000  Level Washington Center
Wed 09:02:25 AM 40.0403 -74.8164 North 194 223 11,000  Level Washington Center
Wed 09:03:26 AM 40.0261 -74.8953 257° West 108 124 11,000  Level Washington Center
Wed 09:04:24 AM 39.9722 -74.9606 223° Southwest 168 193 11,000  Level Washington Center
Wed 09:05:25 AM 39.9056 -74.9586 179° South 201 231 11,000  Level Washington Center
Wed 09:06:26 AM 39.9239 -74.8828 72° East 169 194 11,000  Level Washington Center
Wed 09:07:06 AM 39.9667 -74.8333 42° Northeast 289 333 11,000  Level New York TRACON
Wed 09:08:06 AM 40.0333 -74.7500 44° Northeast 307 353 11,000 -316 Level New York TRACON
Wed 09:09:00 AM 40.0833 -74.6667 52° Northeast 312 359 10,400 -526 Descending New York TRACON
Wed 09:10:00 AM 40.1333 -74.5833 52° Northeast 303 349 10,000 -211 Descending New York TRACON
Wed 09:10:54 AM 40.2000 -74.5167 37° Northeast 304 350 10,000 -53 Level New York TRACON
Wed 09:11:54 AM 40.2500 -74.4333 52° Northeast 304 350 9,900 -550 Descending New York TRACON
Wed 09:12:54 AM 40.3167 -74.3667 37° Northeast 294 338 8,900 -1,095 Descending New York TRACON
Wed 09:14:00 AM 40.3667 -74.2833 52° Northeast 286 329 7,600 -950 Descending New York TRACON
Wed 09:14:54 AM 40.4167 -74.2167 45° Northeast 278 320 7,000 -737 Descending New York TRACON
Wed 09:15:54 AM 40.4833 -74.1500 37° Northeast 277 319 6,200 -1,250 Descending New York TRACON
Wed 09:16:54 AM 40.5500 -74.0833 37° Northeast 275 316 4,500 -1,200 Descending New York TRACON
Wed 09:17:54 AM 40.6000 -74.0333 37° Northeast 214 246 3,800 -750 Descending New York TRACON
Wed 09:18:54 AM 40.6333 -74.0000 37° Northeast 189 217 3,000 -678 Descending New York TRACON
Wed 09:19:49 AM 40.6667 -73.9667 37° Northeast 185 213 2,500 -850 Descending New York TRACON
Wed 09:20:54 AM 40.7167 -73.9333 27° Northeast 151 174 1,300 -908 Descending New York TRACON
Wed 09:21:48 AM 40.7500 -73.9000 37° Northeast 134 154 700 -667 Descending New York TRACON
Wed 09:23:00 AM 40.7667 -73.8667 30° Northeast  Level FlightAware Approximate
Wed 09:30:00 AM 40.7772 -73.8726 30° Northeast  Level Estimated

Login

Don't have an account? Register now (free) for customized features, flight alerts, and more!